createdAt,value
2018-11-29T00:00:40.016Z,8.17
2018-11-29T00:03:09.204Z,6.77
2018-11-29T00:05:37.477Z,6.90
2018-11-29T00:08:05.704Z,7.53
2018-11-29T00:10:33.968Z,7.03
2018-11-29T00:13:02.156Z,7.53
2018-11-29T00:15:30.343Z,7.90
2018-11-29T00:17:58.544Z,8.30
2018-11-29T00:20:26.731Z,8.07
2018-11-29T00:22:54.899Z,7.43
2018-11-29T00:25:23.077Z,7.17
2018-11-29T00:27:51.272Z,7.17
2018-11-29T00:30:20.342Z,6.90
2018-11-29T00:32:48.923Z,7.63
2018-11-29T00:35:17.379Z,8.77
2018-11-29T00:37:45.607Z,6.80
2018-11-29T00:40:15.500Z,6.00
2018-11-29T00:42:43.712Z,7.37
2018-11-29T00:45:13.685Z,7.27
2018-11-29T00:47:42.013Z,8.27
2018-11-29T00:50:11.985Z,6.40
2018-11-29T00:52:40.956Z,7.10
2018-11-29T00:55:10.277Z,6.90
2018-11-29T00:57:38.822Z,6.43
2018-11-29T01:00:12.148Z,7.47
2018-11-29T01:02:40.325Z,7.47
2018-11-29T01:05:08.584Z,9.03
2018-11-29T01:07:36.759Z,8.50
2018-11-29T01:10:11.165Z,7.63
2018-11-29T01:12:39.389Z,7.37
2018-11-29T01:15:12.100Z,7.07
2018-11-29T01:17:40.288Z,8.77
2018-11-29T01:20:14.252Z,8.13
2018-11-29T01:22:42.452Z,7.90
2018-11-29T01:25:11.502Z,7.57
2018-11-29T01:27:39.728Z,8.23
2018-11-29T01:30:22.880Z,8.23
2018-11-29T01:32:51.075Z,7.50
2018-11-29T01:35:19.982Z,9.07
2018-11-29T01:37:48.427Z,6.87
2018-11-29T01:40:19.009Z,8.23
2018-11-29T01:42:55.126Z,6.93
2018-11-29T01:45:23.318Z,8.70
2018-11-29T01:47:51.520Z,7.50
2018-11-29T01:50:19.708Z,6.93
2018-11-29T01:52:47.888Z,8.20
2018-11-29T01:55:16.104Z,5.90
2018-11-29T01:57:44.292Z,7.07
2018-11-29T02:00:15.534Z,7.57
2018-11-29T02:02:44.515Z,7.33
2018-11-29T02:05:12.736Z,7.40
2018-11-29T02:07:40.900Z,7.70
2018-11-29T02:10:18.454Z,7.00
2018-11-29T02:12:46.651Z,8.33
2018-11-29T02:15:14.872Z,7.10
2018-11-29T02:17:43.076Z,7.03
2018-11-29T02:20:12.813Z,6.30
2018-11-29T02:22:41.025Z,7.07
2018-11-29T02:25:09.240Z,7.80
2018-11-29T02:27:37.432Z,7.63
2018-11-29T02:30:11.316Z,6.73
2018-11-29T02:32:39.505Z,6.30
2018-11-29T02:35:07.694Z,6.93
2018-11-29T02:37:35.887Z,5.93
2018-11-29T02:40:04.179Z,4.67
2018-11-29T02:42:32.432Z,6.20
2018-11-29T04:48:32.918Z,6.00
2018-11-29T04:51:01.051Z,5.90
2018-11-29T04:53:29.214Z,5.00
2018-11-29T04:55:57.369Z,6.70
2018-11-29T04:58:25.537Z,5.57
2018-11-29T05:00:53.725Z,5.73
2018-11-29T05:03:21.877Z,5.80
2018-11-29T05:05:50.047Z,4.87
2018-11-29T05:08:18.231Z,5.60
2018-11-29T05:10:46.410Z,5.87
2018-11-29T05:13:14.567Z,5.50
2018-11-29T05:15:42.722Z,5.77
2018-11-29T05:18:10.875Z,6.27
2018-11-29T05:20:39.027Z,7.03
2018-11-29T05:23:07.188Z,6.50
2018-11-29T05:25:35.333Z,5.83
2018-11-29T05:28:03.495Z,6.00
2018-11-29T05:30:31.665Z,7.00
2018-11-29T05:32:59.817Z,6.50
2018-11-29T05:35:27.973Z,6.27
2018-11-29T05:37:56.127Z,6.07
2018-11-29T05:40:24.272Z,6.17
2018-11-29T05:42:52.435Z,5.97
2018-11-29T05:45:20.620Z,5.97
2018-11-29T05:47:48.825Z,5.45
2018-11-29T05:50:17.034Z,6.97
2018-11-29T05:52:45.204Z,7.33
2018-11-29T05:55:13.363Z,9.97
2018-11-29T05:57:41.551Z,7.37
2018-11-29T06:00:12.323Z,8.25
2018-11-29T06:02:40.572Z,7.50
2018-11-29T06:05:09.830Z,6.75
2018-11-29T06:07:38.022Z,8.17
2018-11-29T06:10:06.253Z,6.47
2018-11-29T06:12:34.419Z,6.85
2018-11-29T06:15:02.628Z,7.30
2018-11-29T06:17:30.789Z,7.70
2018-11-29T06:19:58.932Z,6.83
2018-11-29T06:22:27.117Z,8.60
2018-11-29T06:24:55.293Z,7.37
2018-11-29T06:27:23.500Z,6.45
2018-11-29T06:29:51.656Z,6.63
2018-11-29T06:32:19.809Z,7.23
2018-11-29T06:34:47.979Z,6.63
2018-11-29T06:37:16.144Z,6.17
2018-11-29T06:39:44.351Z,7.07
2018-11-29T06:42:12.525Z,7.40
2018-11-29T06:44:40.753Z,6.97
2018-11-29T06:47:08.908Z,7.47
2018-11-29T06:49:37.065Z,7.60
2018-11-29T06:52:05.709Z,7.57
2018-11-29T06:54:33.876Z,8.03
2018-11-29T06:57:02.036Z,7.67
2018-11-29T06:59:30.181Z,8.13
2018-11-29T07:01:58.348Z,8.03
2018-11-29T07:04:26.591Z,8.00
2018-11-29T07:06:54.754Z,7.57
2018-11-29T07:09:22.892Z,6.90
2018-11-29T07:11:51.038Z,7.57
2018-11-29T07:14:19.186Z,6.57
2018-11-29T07:16:47.878Z,7.43
2018-11-29T07:19:16.020Z,8.30
2018-11-29T07:21:50.340Z,7.57
2018-11-29T07:24:18.594Z,6.93
2018-11-29T07:26:46.812Z,7.23
2018-11-29T07:29:16.977Z,6.43
2018-11-29T07:31:43.118Z,6.33
2018-11-29T07:34:11.259Z,7.40
2018-11-29T07:36:39.416Z,6.50
2018-11-29T07:39:10.024Z,8.20
2018-11-29T07:41:39.013Z,8.23
2018-11-29T07:44:09.400Z,7.00
2018-11-29T07:46:37.548Z,7.07
2018-11-29T07:49:05.711Z,6.90
2018-11-29T07:51:33.879Z,7.72
2018-11-29T07:54:02.011Z,6.43
2018-11-29T07:56:30.167Z,8.80
2018-11-29T07:58:58.298Z,8.67
2018-11-29T08:01:26.445Z,8.70
2018-11-29T08:03:54.653Z,7.97
2018-11-29T08:06:22.784Z,8.50
2018-11-29T08:08:50.946Z,7.57
2018-11-29T08:11:19.090Z,7.95
2018-11-29T08:13:47.247Z,7.20
2018-11-29T08:16:15.397Z,7.50
2018-11-29T08:18:43.556Z,7.33
2018-11-29T08:21:11.724Z,7.10
2018-11-29T08:23:39.901Z,7.77
2018-11-29T08:26:08.049Z,7.35
2018-11-29T08:28:37.478Z,7.12
2018-11-29T08:31:05.748Z,7.25
2018-11-29T08:33:33.965Z,5.97
2018-11-29T08:36:02.113Z,6.77
2018-11-29T08:38:30.248Z,5.70
2018-11-29T08:40:58.508Z,7.97
2018-11-29T08:43:26.906Z,7.43
2018-11-29T08:45:54.844Z,7.23
2018-11-29T08:48:22.979Z,7.70
2018-11-29T08:50:51.373Z,7.57
2018-11-29T08:53:19.549Z,6.97
2018-11-29T08:55:47.705Z,7.67
2018-11-29T08:58:16.003Z,8.00
2018-11-29T09:00:44.157Z,7.50
2018-11-29T09:03:12.305Z,7.83
2018-11-29T09:05:40.441Z,7.30
2018-11-29T09:08:08.604Z,8.17
2018-11-29T09:10:36.766Z,7.17
2018-11-29T09:13:05.293Z,6.87
2018-11-29T09:15:33.445Z,6.77
2018-11-29T09:18:01.677Z,7.63
2018-11-29T09:20:29.828Z,6.93
2018-11-29T09:22:58.038Z,7.87
2018-11-29T09:25:26.228Z,8.10
2018-11-29T09:27:54.412Z,8.28
2018-11-29T09:30:23.299Z,7.13
2018-11-29T09:32:53.416Z,6.80
2018-11-29T09:35:21.572Z,5.73
2018-11-29T09:37:49.713Z,7.03
2018-11-29T09:40:18.447Z,6.40
2018-11-29T09:42:46.687Z,7.67
2018-11-29T09:45:23.859Z,6.77
2018-11-29T09:47:54.723Z,7.53
2018-11-29T09:50:23.489Z,5.90
2018-11-29T09:52:51.608Z,6.50
2018-11-29T09:55:19.751Z,5.87
2018-11-29T09:57:48.825Z,6.08
2018-11-29T10:00:27.767Z,5.70
2018-11-29T10:02:55.225Z,6.60
2018-11-29T10:05:23.422Z,6.80
2018-11-29T10:07:51.612Z,6.15
2018-11-29T10:10:19.757Z,6.40
2018-11-29T10:12:47.927Z,7.40
2018-11-29T10:15:16.168Z,7.00
2018-11-29T10:17:44.315Z,7.62
2018-11-29T10:20:12.838Z,7.25
2018-11-29T10:22:41.760Z,7.20
2018-11-29T10:25:12.055Z,7.47
2018-11-29T10:27:40.659Z,6.85
2018-11-29T10:30:19.243Z,7.05
2018-11-29T10:32:47.515Z,6.50
2018-11-29T10:35:16.709Z,5.87
2018-11-29T10:37:44.844Z,7.07
2018-11-29T10:40:13.096Z,7.03
2018-11-29T10:42:41.356Z,6.75
2018-11-29T10:45:13.628Z,6.30
2018-11-29T10:47:42.730Z,6.92
2018-11-29T10:50:12.108Z,6.55
2018-11-29T10:52:40.285Z,6.30
2018-11-29T10:55:11.086Z,5.05
2018-11-29T10:57:39.850Z,5.50
2018-11-29T11:00:34.744Z,5.80
2018-11-29T11:03:10.280Z,5.55
2018-11-29T11:05:38.428Z,5.00
2018-11-29T11:08:08.749Z,4.97
2018-11-29T11:10:36.314Z,5.33
2018-11-29T11:13:04.731Z,5.12
2018-11-29T11:15:32.867Z,5.10
2018-11-29T11:18:01.019Z,4.08
2018-11-29T11:20:29.238Z,4.33
2018-11-29T11:22:57.396Z,3.60
2018-11-29T11:25:25.598Z,5.20
2018-11-29T11:27:53.774Z,5.20
2018-11-29T11:30:22.273Z,4.50
2018-11-29T11:32:51.452Z,5.12
2018-11-29T11:35:19.616Z,5.33
2018-11-29T11:37:47.776Z,4.65
2018-11-29T11:40:16.514Z,5.75
2018-11-29T11:42:45.580Z,4.78
2018-11-29T11:45:15.679Z,4.20
2018-11-29T11:47:43.885Z,4.47
2018-11-29T11:50:16.113Z,3.90
2018-11-29T11:52:44.289Z,4.20
2018-11-29T11:55:18.691Z,3.67
2018-11-29T11:57:41.457Z,5.53
2018-11-29T12:00:16.934Z,4.37
2018-11-29T12:02:45.376Z,4.45
2018-11-29T12:05:13.464Z,3.90
2018-11-29T12:07:41.661Z,4.25
2018-11-29T12:10:13.893Z,4.22
2018-11-29T12:12:42.060Z,4.30
2018-11-29T12:15:11.416Z,3.60
2018-11-29T12:17:39.900Z,3.72
2018-11-29T12:20:10.664Z,3.25
2018-11-29T12:22:39.085Z,4.17
2018-11-29T12:25:09.623Z,4.95
2018-11-29T12:27:37.814Z,4.95
2018-11-29T12:30:13.336Z,4.22
2018-11-29T12:32:41.512Z,3.90
2018-11-29T12:35:09.670Z,4.55
2018-11-29T12:37:37.886Z,4.08
2018-11-29T12:40:10.337Z,4.25
2018-11-29T12:42:38.567Z,4.17
2018-11-29T12:45:08.583Z,4.47
2018-11-29T12:47:36.905Z,4.45
2018-11-29T12:50:09.613Z,4.60
2018-11-29T12:52:37.770Z,3.58
2018-11-29T12:55:07.242Z,3.08
2018-11-29T12:57:35.508Z,3.77
2018-11-29T13:00:04.529Z,3.90
2018-11-29T13:02:32.684Z,3.58
2018-11-29T13:05:00.840Z,3.77
2018-11-29T13:07:28.996Z,3.80
2018-11-29T13:09:57.163Z,3.30
2018-11-29T13:12:25.312Z,3.27
2018-11-29T13:14:54.706Z,3.80
2018-11-29T13:17:22.865Z,3.67
2018-11-29T13:19:51.006Z,3.42
2018-11-29T13:22:19.160Z,3.92
2018-11-29T13:24:47.306Z,3.33
2018-11-29T13:27:15.459Z,4.00
2018-11-29T13:29:43.638Z,4.55
2018-11-29T13:32:11.763Z,3.75
2018-11-29T13:34:39.885Z,4.35
2018-11-29T13:37:08.049Z,3.77
2018-11-29T13:39:36.245Z,3.98
2018-11-29T13:42:04.455Z,3.98
2018-11-29T13:44:32.579Z,4.03
2018-11-29T13:47:00.712Z,3.60
2018-11-29T13:49:28.848Z,3.27
2018-11-29T13:51:57.004Z,4.08
2018-11-29T13:54:25.196Z,3.55
2018-11-29T13:56:53.319Z,3.58
2018-11-29T13:59:21.508Z,3.80
2018-11-29T14:01:49.665Z,3.55
2018-11-29T14:04:17.802Z,3.85
2018-11-29T14:06:45.926Z,3.55
2018-11-29T14:09:14.059Z,3.20
2018-11-29T14:11:42.172Z,4.35
2018-11-29T14:14:10.356Z,9.80
2018-11-29T14:16:38.490Z,5.12
2018-11-29T14:19:06.673Z,4.33
2018-11-29T14:21:34.852Z,3.47
2018-11-29T14:24:03.049Z,3.37
2018-11-29T14:26:31.186Z,3.22
2018-11-29T14:28:59.363Z,3.50
2018-11-29T14:31:27.476Z,4.20
2018-11-29T14:33:55.918Z,3.50
2018-11-29T14:36:24.155Z,4.37
2018-11-29T14:38:52.292Z,4.47
2018-11-29T14:41:20.421Z,4.70
2018-11-29T14:43:48.532Z,3.90
2018-11-29T14:46:17.283Z,3.60
2018-11-29T14:48:44.808Z,3.98
2018-11-29T14:51:12.961Z,5.00
2018-11-29T14:53:41.184Z,5.20
2018-11-29T14:56:09.368Z,5.50
2018-11-29T14:58:37.480Z,5.35
2018-11-29T15:01:05.760Z,4.17
2018-11-29T15:03:33.910Z,4.53
2018-11-29T15:06:02.075Z,5.22
2018-11-29T15:08:30.183Z,5.25
2018-11-29T15:10:59.174Z,4.85
2018-11-29T15:13:27.555Z,5.45
2018-11-29T15:15:55.903Z,4.92
2018-11-29T15:18:24.223Z,4.37
2018-11-29T15:20:52.722Z,5.08
2018-11-29T15:23:21.006Z,4.97
2018-11-29T15:25:49.285Z,4.90
2018-11-29T15:28:17.623Z,4.33
2018-11-29T15:30:45.864Z,4.62
2018-11-29T15:33:14.038Z,5.30
2018-11-29T15:35:42.219Z,5.30
2018-11-29T15:38:10.402Z,4.80
2018-11-29T15:40:38.598Z,5.10
2018-11-29T15:43:06.740Z,5.95
2018-11-29T15:45:35.145Z,5.62
2018-11-29T15:48:03.558Z,4.85
2018-11-29T15:50:31.989Z,5.03
2018-11-29T15:53:00.321Z,5.17
2018-11-29T15:55:28.764Z,4.08
2018-11-29T15:57:57.087Z,5.08
2018-11-29T16:00:26.410Z,5.00
2018-11-29T16:02:55.499Z,5.20
2018-11-29T16:05:23.641Z,5.12
2018-11-29T16:07:51.780Z,4.25
2018-11-29T16:10:21.278Z,4.03
2018-11-29T16:12:49.412Z,4.42
2018-11-29T16:15:18.440Z,4.20
2018-11-29T16:17:47.201Z,4.62
2018-11-29T16:20:17.760Z,5.10
2018-11-29T16:22:45.953Z,4.78
2018-11-29T16:25:14.120Z,4.53
2018-11-29T16:27:42.573Z,4.85
2018-11-29T16:30:20.999Z,4.37
2018-11-29T16:32:49.147Z,4.60
2018-11-29T16:35:17.290Z,4.33
2018-11-29T16:37:45.416Z,3.92
2018-11-29T16:40:13.563Z,5.35
2018-11-29T16:42:41.716Z,5.15
2018-11-29T16:45:12.188Z,4.37
2018-11-29T16:47:40.748Z,4.30
2018-11-29T16:50:14.185Z,4.05
2018-11-29T16:52:42.324Z,4.78
2018-11-29T16:55:11.343Z,5.17
2018-11-29T16:57:42.040Z,5.45
2018-11-29T17:00:15.557Z,3.98
2018-11-29T17:02:43.720Z,4.45
2018-11-29T17:05:13.145Z,3.80
2018-11-29T17:07:41.279Z,4.10
2018-11-29T17:10:11.717Z,4.78
2018-11-29T17:12:40.204Z,4.72
2018-11-29T17:15:12.797Z,3.67
2018-11-29T17:17:40.949Z,4.00
2018-11-29T17:20:11.364Z,4.37
2018-11-29T17:22:39.481Z,3.50
2018-11-29T17:25:09.177Z,3.50
2018-11-29T17:27:37.343Z,4.20
2018-11-29T17:30:10.249Z,3.67
2018-11-29T17:32:38.395Z,3.80
2018-11-29T17:35:06.640Z,3.65
2018-11-29T17:37:34.769Z,4.22
2018-11-29T17:40:02.920Z,3.80
2018-11-29T17:42:32.084Z,4.33
2018-11-29T17:45:00.208Z,3.60
2018-11-29T17:47:28.378Z,3.58
2018-11-29T17:49:56.640Z,4.25
2018-11-29T17:52:24.785Z,4.05
2018-11-29T17:54:52.927Z,3.83
2018-11-29T17:57:21.105Z,4.45
2018-11-29T17:59:49.271Z,4.22
2018-11-29T18:02:17.391Z,4.20
2018-11-29T18:04:45.543Z,4.03
2018-11-29T18:07:13.681Z,3.87
2018-11-29T18:09:41.807Z,4.55
2018-11-29T18:12:10.265Z,4.25
2018-11-29T18:14:39.564Z,4.50
2018-11-29T18:17:08.061Z,4.22
2018-11-29T18:19:36.208Z,4.53
2018-11-29T18:22:04.442Z,3.62
2018-11-29T18:24:32.653Z,3.70
2018-11-29T18:27:00.811Z,4.55
2018-11-29T18:29:28.969Z,4.17
2018-11-29T18:31:57.242Z,4.30
2018-11-29T18:34:25.310Z,4.75
2018-11-29T18:36:53.444Z,4.45
2018-11-29T18:39:21.658Z,4.35
2018-11-29T18:41:49.879Z,4.37
2018-11-29T18:44:18.017Z,4.70
2018-11-29T18:46:46.261Z,4.60
2018-11-29T18:49:14.521Z,6.60
2018-11-29T18:51:42.687Z,4.10
2018-11-29T18:54:10.820Z,4.65
2018-11-29T18:56:39.084Z,4.60
2018-11-29T18:59:07.242Z,4.70
2018-11-29T19:01:35.400Z,4.15
2018-11-29T19:04:03.559Z,4.37
2018-11-29T19:06:31.824Z,4.30
2018-11-29T19:08:59.954Z,4.85
2018-11-29T19:11:28.125Z,4.92
2018-11-29T19:13:56.266Z,4.58
2018-11-29T19:16:24.468Z,4.70
2018-11-29T19:18:52.676Z,4.72
2018-11-29T19:21:20.806Z,5.05
2018-11-29T19:23:48.976Z,5.03
2018-11-29T19:26:17.133Z,4.70
2018-11-29T19:28:45.323Z,4.85
2018-11-29T19:31:13.493Z,4.92
2018-11-29T19:33:41.721Z,5.10
2018-11-29T19:36:09.937Z,5.67
2018-11-29T19:38:38.069Z,4.97
2018-11-29T19:41:06.441Z,5.20
2018-11-29T19:43:34.593Z,5.45
2018-11-29T19:46:02.742Z,4.72
2018-11-29T19:48:30.898Z,5.33
2018-11-29T19:50:59.036Z,5.58
2018-11-29T19:53:27.523Z,5.25
2018-11-29T19:55:58.187Z,5.17
2018-11-29T19:58:26.395Z,5.05
2018-11-29T20:00:54.657Z,4.50
2018-11-29T20:03:22.862Z,5.83
2018-11-29T20:05:51.165Z,4.62
2018-11-29T20:08:19.285Z,4.85
2018-11-29T20:10:47.470Z,6.33
2018-11-29T20:13:15.720Z,6.62
2018-11-29T20:15:46.764Z,5.92
2018-11-29T20:18:15.090Z,5.10
2018-11-29T20:20:43.266Z,4.67
2018-11-29T20:23:12.088Z,5.15
2018-11-29T20:25:41.625Z,6.22
2018-11-29T20:28:09.779Z,8.58
2018-11-29T20:30:37.931Z,6.53
2018-11-29T20:33:06.343Z,6.10
2018-11-29T20:35:34.493Z,4.97
2018-11-29T20:38:02.672Z,4.85
2018-11-29T20:40:33.226Z,4.15
2018-11-29T20:43:01.671Z,4.47
2018-11-29T20:45:31.493Z,5.12
2018-11-29T20:47:59.767Z,4.42
2018-11-29T20:50:28.971Z,4.50
2018-11-29T20:52:58.472Z,4.55
2018-11-29T20:55:27.997Z,4.12
2018-11-29T20:57:56.208Z,5.53
2018-11-29T21:00:24.381Z,4.67
2018-11-29T21:02:52.509Z,5.03
2018-11-29T21:05:21.603Z,3.83
2018-11-29T21:07:51.124Z,4.80
2018-11-29T21:10:22.503Z,3.83
2018-11-29T21:12:50.665Z,4.35
2018-11-29T21:15:18.819Z,4.80
2018-11-29T21:17:46.946Z,5.40
2018-11-29T21:20:16.159Z,5.05
2018-11-29T21:22:45.677Z,5.05
2018-11-29T21:25:23.742Z,4.17
2018-11-29T21:27:51.872Z,3.70
2018-11-29T21:30:20.051Z,5.10
2018-11-29T21:32:48.715Z,4.55
2018-11-29T21:35:19.142Z,4.72
2018-11-29T21:37:47.358Z,5.45
2018-11-29T21:40:27.636Z,5.05
2018-11-29T21:42:56.092Z,5.15
2018-11-29T21:45:24.271Z,4.33
2018-11-29T21:47:52.436Z,3.85
2018-11-29T21:50:20.711Z,5.62
2018-11-29T21:52:48.858Z,5.30
2018-11-29T21:55:17.026Z,5.70
2018-11-29T21:57:45.233Z,5.50
2018-11-29T22:00:14.589Z,4.42
2018-11-29T22:02:47.834Z,6.33
2018-11-29T22:05:15.959Z,5.75
2018-11-29T22:07:44.132Z,5.28
2018-11-29T22:10:12.271Z,6.17
2018-11-29T22:12:40.384Z,5.25
2018-11-29T22:15:10.821Z,5.87
2018-11-29T22:17:53.559Z,4.45
2018-11-29T22:20:22.052Z,4.95
2018-11-29T22:22:50.170Z,5.22
2018-11-29T22:25:18.301Z,5.35
2018-11-29T22:27:46.493Z,8.13
2018-11-29T22:30:14.614Z,6.10
2018-11-29T22:32:42.786Z,5.17
2018-11-29T22:35:10.921Z,5.28
2018-11-29T22:37:39.090Z,5.00
2018-11-29T22:40:07.788Z,5.10
2018-11-29T22:42:35.956Z,5.28
2018-11-29T22:45:04.465Z,5.53
2018-11-29T22:47:32.625Z,4.15
2018-11-29T22:50:00.797Z,5.42
2018-11-29T22:52:28.924Z,5.62
2018-11-29T22:54:57.060Z,5.92
2018-11-29T22:57:25.183Z,5.40
2018-11-29T22:59:53.395Z,4.80
2018-11-29T23:02:21.568Z,4.78
2018-11-29T23:04:49.773Z,4.87
2018-11-29T23:07:17.913Z,5.55
2018-11-29T23:09:46.076Z,5.40
2018-11-29T23:12:14.221Z,4.62
2018-11-29T23:14:42.344Z,4.92
2018-11-29T23:17:10.505Z,4.87
2018-11-29T23:19:38.635Z,4.75
2018-11-29T23:22:06.765Z,5.47
2018-11-29T23:24:34.913Z,4.90
2018-11-29T23:27:03.090Z,4.62
2018-11-29T23:29:31.236Z,4.50
2018-11-29T23:31:59.390Z,5.80
2018-11-29T23:34:27.511Z,4.30
2018-11-29T23:36:55.660Z,4.80
2018-11-29T23:39:23.803Z,5.25
2018-11-29T23:41:51.933Z,4.40
2018-11-29T23:44:20.055Z,4.78
2018-11-29T23:46:48.243Z,4.62
2018-11-29T23:49:16.390Z,4.95
2018-11-29T23:51:44.535Z,4.15
2018-11-29T23:54:12.649Z,4.70
2018-11-29T23:56:40.795Z,4.55
2018-11-29T23:59:08.938Z,4.83
